• Join FlightAware (Why Join?)
  • Login
  • US Flag 
06:04PM EDT


 

Airport Tracker/Info


-or-


 

Live Flight TrackerFlight Track Log ✈ AWE3287 ✈ 23-Apr-2013 ✈ KPHL - KORF

Flight Track Log - Related Links

Times and Time Zones

All times are in EDT time to prevent confusion due to time zone crossing. See the AWE3287 flight status page for this flight to view local times or setup timezone preferences in your user account.

Time Position Orientation Groundspeed Altitude Reporting Facility
EDT Latitude Longitude Course Direction KTS MPH feet Rate Location/Type
02:13PM 39.8708 -75.2164 185° South 139 160 1,700  Level FAA TRACON SMA TRACON (SMA)
02:13PM 39.8642 -75.2019 121° Southeast 153 176 2,200 1,860 Climbing FAA TRACON SMA TRACON (SMA)
02:13PM 39.8556 -75.1792 116° Southeast 187 215 3,000 2,520 Climbing FAA TRACON SMA TRACON (SMA)
02:14PM 39.8472 -75.1583 118° Southeast 203 234 3,900 2,280 Climbing FAA TRACON SMA TRACON (SMA)
02:14PM 39.8392 -75.1353 114° Southeast 230 265 4,500 2,580 Climbing FAA TRACON SMA TRACON (SMA)
02:14PM 39.8222 -75.1086 130° Southeast 263 303 5,600 3,060 Climbing FAA TRACON SMA TRACON (SMA)
02:15PM 39.6418 -75.2915 218° Southwest  Level FlightAware Approximate
02:15PM 39.8011 -75.1036 170° South 268 308 6,500  Level FAA TRACON SMA TRACON (SMA)
02:15PM 39.7525 -75.1353 207° Southwest 284 327 8,900 3,120 Climbing FAA TRACON SMA TRACON (SMA)
02:16PM 39.5659 -75.3035 189° South  Level FlightAware Approximate
02:16PM 39.7322 -75.1508 211° Southwest 285 328 9,700  Level FAA TRACON SMA TRACON (SMA)
02:16PM 39.7097 -75.1683 211° Southwest 287 330 10,400 1,500 Climbing FAA TRACON SMA TRACON (SMA)
02:16PM 39.6897 -75.1836 210° Southwest 298 343 10,700 1,920 Climbing FAA TRACON SMA TRACON (SMA)
02:17PM 39.4886 -75.3205 194° South  Level FlightAware Approximate
02:17PM 39.6578 -75.2089 211° Southwest 321 369 11,700  Level FAA TRACON SMA TRACON (SMA)
02:17PM 39.6347 -75.2267 211° Southwest 325 374 12,000 420 Climbing FAA TRACON SMA TRACON (SMA)
02:17PM 39.6092 -75.2461 210° Southwest 328 377 12,000  Level FAA TRACON SMA TRACON (SMA)
02:18PM 39.4115 -75.3358 185° South  Level FlightAware Approximate
02:18PM 39.5800 -75.2686 211° Southwest 329 379 12,000  Level FAA TRACON SMA TRACON (SMA)
02:18PM 39.5544 -75.2883 211° Southwest 329 379 12,500 2,220 Climbing FAA TRACON SMA TRACON (SMA)
02:18PM 39.5261 -75.3103 211° Southwest 331 381 13,500 2,820 Climbing FAA TRACON SMA TRACON (SMA)
02:19PM 39.4986 -75.3258 204° Southwest 331 381 14,400 2,700 Climbing FAA TRACON SMA TRACON (SMA)
02:19PM 39.4692 -75.3339 192° South 343 395 15,300 2,220 Climbing FAA TRACON SMA TRACON (SMA)
02:19PM 39.4400 -75.3397 189° South 343 395 15,900 1,020 Climbing FAA TRACON SMA TRACON (SMA)
02:20PM 39.4069 -75.3442 186° South 342 394 16,000 120 Climbing FAA TRACON SMA TRACON (SMA)
02:20PM 39.3744 -75.3511 189° South 343 395 16,000 420 Level FAA TRACON SMA TRACON (SMA)
02:20PM 39.3453 -75.3564 188° South 343 395 16,300 900 Climbing FAA TRACON SMA TRACON (SMA)
02:21PM 39.3114 -75.3622 188° South 344 396 16,600 660 Climbing FAA TRACON SMA TRACON (SMA)
02:21PM 39.2492 -75.3736 188° South 349 402 17,000 360 Climbing FAA TRACON SMA TRACON (SMA)
02:22PM 39.2428 -75.3753 191° South 349 402 17,000 780 Level FAA TRACON SMA TRACON (SMA)
02:23PM 39.1111 -75.3964 187° South 361 415 18,200 1,680 Climbing Washington Center
02:24PM 39.0111 -75.4153 188° South 366 421 20,600 1,860 Climbing Washington Center
02:25PM 38.9111 -75.4261 185° South 371 427 22,000 660 Climbing Washington Center
02:26PM 38.8089 -75.4425 187° South 371 427 22,000  Level Washington Center
02:27PM 38.7089 -75.4586 187° South 371 427 22,000  Level Washington Center
02:28PM 38.6067 -75.4775 188° South 371 427 22,000  Level Washington Center
02:29PM 38.5047 -75.4883 185° South 371 427 22,000  Level Washington Center
02:30PM 38.4067 -75.5017 186° South 371 427 22,000  Level Washington Center
02:31PM 38.3044 -75.5308 193° South 371 427 22,000  Level Washington Center
02:32PM 38.2147 -75.5892 207° Southwest 371 427 22,000  Level Washington Center
02:33PM 38.1272 -75.6472 208° Southwest 366 421 22,000 -1,680 Level Washington Center
02:34PM 38.0314 -75.7103 207° Southwest 360 414 18,700 -2,700 Descending Washington Center
02:35PM 37.9394 -75.7656 205° Southwest 360 414 16,700 -1,920 Descending Washington Center
02:36PM 37.8539 -75.8181 206° Southwest 360 414 14,900 -1,740 Descending Washington Center
02:36PM 37.7808 -75.8597 204° Southwest 336 387 13,600 -1,800 Descending Washington Center
02:38PM 37.6867 -75.9197 207° Southwest 340 391 11,400 -1,800 Descending Washington Center
02:38PM 37.6556 -75.9356 202° Southwest 326 375 10,900 -1,500 Descending Washington Center
02:39PM 37.6053 -75.9642 204° Southwest 335 386 9,900 -1,080 Descending Washington Center
02:39PM 37.5469 -75.9847 196° South 295 339 9,500 -1,140 Descending Washington Center
02:40PM 37.5239 -75.9897 190° South 323 372 8,800 -1,560 Descending Washington Center
02:40PM 37.4822 -76.0053 197° South 286 329 8,100 -840 Descending Washington Center
02:41PM 37.4467 -76.0183 196° South 300 345 8,000  Descending Washington Center
02:41PM 37.3986 -76.0336 194° South 286 329 8,100  Climbing Washington Center
02:42PM 37.3714 -76.0414 193° South 293 337 8,000  Descending Washington Center
02:42PM 37.3150 -76.0619 196° South 288 331 8,100  Climbing Washington Center
02:43PM 37.2919 -76.0722 200° South 293 337 8,000 -120 Descending Washington Center
02:43PM 37.2314 -76.0928 195° South 288 331 8,000 -60 Level Washington Center
02:44PM 37.1564 -76.1183 195° South 288 331 7,900 -960 Descending Washington Center
02:45PM 37.0747 -76.1489 197° South 283 326 6,100 -1,380 Descending Washington Center
02:46PM 37.0139 -76.2031 215° Southwest 270 311 5,100 -540 Descending Washington Center
02:47PM 36.9533 -76.2572 216° Southwest 275 316 5,100  Level Washington Center